Time;durP1;ratioP1;P1;durP2;ratioP2;P2;SDS_P1;SDS_P2;PMS_P1;PMS_P2;Temp;Humidity;BMP_temperature;BMP_pressure;BME280_temperature;BME280_humidity;BME280_pressure;Samples;Min_cycle;Max_cycle;Signal;HPM_P1;HPM_P2
2022/03/20 00:00:08;;;;;;;6.55;2.65;;;0.10;99.90;;;;;;4935321;29;20394;-87
2022/03/20 00:02:39;;;;;;;7.03;3.00;;;0.10;99.90;;;;;;4936349;29;20413;-87
2022/03/20 00:05:08;;;;;;;7.55;2.83;;;0.00;99.90;;;;;;4935210;29;20481;-87
2022/03/20 00:07:35;;;;;;;6.95;2.92;;;0.00;99.90;;;;;;4936223;29;20405;-85
2022/03/20 00:10:06;;;;;;;8.15;2.97;;;0.00;99.90;;;;;;4935104;29;20402;-84
2022/03/20 00:12:38;;;;;;;7.85;2.80;;;0.00;99.90;;;;;;4935180;29;20414;-85
2022/03/20 00:15:07;;;;;;;5.88;2.80;;;0.00;99.90;;;;;;4935352;29;20436;-84
2022/03/20 00:17:35;;;;;;;8.45;2.78;;;0.00;99.90;;;;;;4919317;29;20410;-85
2022/03/20 00:20:04;;;;;;;6.95;3.15;;;0.00;99.90;;;;;;4934649;29;20398;-87
2022/03/20 00:22:34;;;;;;;8.32;3.28;;;0.00;99.90;;;;;;4935988;29;20402;-86
2022/03/20 00:25:03;;;;;;;7.95;3.13;;;-0.10;99.90;;;;;;4936302;29;20413;-84
2022/03/20 00:27:33;;;;;;;6.88;2.65;;;-0.10;99.90;;;;;;4934487;29;20420;-85
2022/03/20 00:30:01;;;;;;;6.63;2.90;;;-0.10;99.90;;;;;;4934523;29;20489;-86
2022/03/20 00:32:28;;;;;;;5.68;2.72;;;-0.10;99.90;;;;;;4934657;29;20410;-87
2022/03/20 00:34:59;;;;;;;8.43;2.83;;;-0.20;99.90;;;;;;4918410;29;20410;-86
2022/03/20 00:37:28;;;;;;;6.73;2.80;;;-0.20;99.90;;;;;;4934511;29;20485;-86
2022/03/20 00:39:56;;;;;;;6.43;3.10;;;-0.20;99.90;;;;;;4934345;29;20396;-86
2022/03/20 00:42:26;;;;;;;8.18;3.20;;;-0.20;99.90;;;;;;4934460;29;20405;-86
2022/03/20 00:44:53;;;;;;;6.30;3.00;;;-0.20;99.90;;;;;;4918562;29;20406;-86
2022/03/20 00:47:22;;;;;;;7.60;3.08;;;-0.20;99.90;;;;;;4934260;29;20401;-87
2022/03/20 00:49:50;;;;;;;7.35;3.03;;;-0.20;99.90;;;;;;4935742;29;20405;-87
2022/03/20 00:52:17;;;;;;;7.85;3.25;;;-0.20;99.90;;;;;;4918671;29;20442;-86
2022/03/20 00:54:45;;;;;;;6.78;2.97;;;-0.20;99.90;;;;;;4918508;29;20425;-87
2022/03/20 00:57:12;;;;;;;7.83;2.97;;;-0.20;99.90;;;;;;4934360;29;20398;-87
2022/03/20 00:59:40;;;;;;;6.53;2.88;;;-0.20;99.90;;;;;;4934077;29;20492;-86
2022/03/20 01:02:08;;;;;;;6.60;3.10;;;-0.20;99.90;;;;;;4935204;29;20422;-86
2022/03/20 01:04:36;;;;;;;7.25;3.10;;;-0.20;99.90;;;;;;4935133;29;20461;-87
2022/03/20 01:07:04;;;;;;;6.72;3.10;;;-0.30;99.90;;;;;;4933891;29;20401;-87
2022/03/20 01:09:32;;;;;;;7.68;3.17;;;-0.30;99.90;;;;;;4917994;29;20889;-86
2022/03/20 01:12:00;;;;;;;8.23;3.30;;;-0.30;99.90;;;;;;4933590;29;20398;-87
2022/03/20 01:14:28;;;;;;;8.07;2.97;;;-0.40;99.90;;;;;;4934942;29;20390;-86
2022/03/20 01:16:56;;;;;;;6.90;3.28;;;-0.40;99.90;;;;;;4933637;29;20398;-86
2022/03/20 01:19:25;;;;;;;9.05;3.03;;;-0.40;99.90;;;;;;4934888;29;20394;-87
2022/03/20 01:21:55;;;;;;;6.57;3.05;;;-0.40;99.90;;;;;;4934940;29;20397;-86
2022/03/20 01:24:24;;;;;;;8.00;3.40;;;-0.40;99.90;;;;;;4934848;29;20422;-86
2022/03/20 01:26:51;;;;;;;7.57;3.03;;;-0.30;99.90;;;;;;4934774;29;20405;-87
2022/03/20 01:29:19;;;;;;;10.23;3.33;;;-0.40;99.90;;;;;;4933510;29;20406;-87
2022/03/20 01:31:46;;;;;;;6.80;3.10;;;-0.40;99.90;;;;;;4934751;29;20438;-87
2022/03/20 01:34:14;;;;;;;9.20;3.28;;;-0.40;99.90;;;;;;4934883;29;20488;-86
2022/03/20 01:36:42;;;;;;;7.57;3.33;;;-0.40;99.90;;;;;;4933415;29;20410;-87
2022/03/20 01:39:09;;;;;;;9.07;3.30;;;-0.50;99.90;;;;;;4917795;29;20812;-86
2022/03/20 01:41:38;;;;;;;8.45;3.30;;;-0.60;99.90;;;;;;4933364;29;20405;-87
2022/03/20 01:44:05;;;;;;;8.02;3.17;;;-0.50;99.90;;;;;;4932883;29;20457;-87
2022/03/20 01:46:33;;;;;;;9.20;3.28;;;-0.50;99.90;;;;;;4933053;29;20413;-86
2022/03/20 01:49:01;;;;;;;7.30;3.30;;;-0.50;99.90;;;;;;4934441;29;20437;-87
2022/03/20 01:54:15;;;;;;;10.10;3.75;;;-0.70;99.90;;;;;;4934420;29;20437;-86
2022/03/20 01:56:49;;;;;;;7.90;3.42;;;-0.70;99.90;;;;;;4917457;29;20406;-85
2022/03/20 01:59:17;;;;;;;9.52;3.30;;;-0.70;99.90;;;;;;4933090;29;20405;-85
2022/03/20 02:01:45;;;;;;;7.53;3.33;;;-0.70;99.90;;;;;;4934201;29;20896;-86
2022/03/20 02:04:16;;;;;;;7.43;3.22;;;-0.70;99.90;;;;;;4933240;29;20482;-86
2022/03/20 02:06:44;;;;;;;7.18;3.42;;;-0.60;99.90;;;;;;4933172;29;20877;-86
2022/03/20 02:09:13;;;;;;;9.70;3.27;;;-0.60;99.90;;;;;;4933027;29;20434;-86
2022/03/20 02:11:44;;;;;;;7.68;3.00;;;-0.80;99.90;;;;;;4932992;29;20409;-85
2022/03/20 02:14:11;;;;;;;9.20;3.33;;;-0.80;99.90;;;;;;4917137;29;20968;-86
2022/03/20 02:16:39;;;;;;;9.20;3.42;;;-0.70;99.90;;;;;;4932984;29;20390;-86
2022/03/20 02:19:08;;;;;;;7.47;2.85;;;-0.80;99.90;;;;;;4933216;29;20473;-86
2022/03/20 02:21:44;;;;;;;7.32;3.08;;;-0.80;99.90;;;;;;4917466;29;20409;-85
2022/03/20 02:24:44;;;;;;;8.38;3.20;;;-0.90;99.90;;;;;;4934331;29;20429;-85
2022/03/20 02:27:14;;;;;;;5.63;2.85;;;-0.90;99.90;;;;;;4934119;29;20817;-85
2022/03/20 02:29:57;;;;;;;7.75;2.97;;;-0.80;99.90;;;;;;4932301;29;21524;-85
2022/03/20 02:32:30;;;;;;;8.75;3.28;;;-0.70;99.90;;;;;;4933099;29;20405;-85
2022/03/20 02:35:04;;;;;;;7.13;3.30;;;-0.70;99.90;;;;;;4932872;29;20429;-86
2022/03/20 02:37:34;;;;;;;7.95;3.05;;;-0.70;99.90;;;;;;4934160;29;20390;-85
2022/03/20 02:40:03;;;;;;;6.97;3.30;;;-0.70;99.90;;;;;;4934226;29;20457;-85
2022/03/20 02:42:31;;;;;;;7.88;3.03;;;-0.80;99.90;;;;;;4934033;29;20429;-86
2022/03/20 02:45:03;;;;;;;8.02;3.25;;;-0.80;99.90;;;;;;4934046;29;20562;-85
2022/03/20 02:47:33;;;;;;;6.55;2.80;;;-0.80;99.90;;;;;;4933932;29;20390;-85
2022/03/20 02:50:09;;;;;;;10.05;3.20;;;-0.70;99.90;;;;;;4933949;29;20430;-85
2022/03/20 02:52:46;;;;;;;9.98;3.33;;;-0.80;99.90;;;;;;4933845;29;20405;-85
2022/03/20 02:55:28;;;;;;;7.53;3.13;;;-0.90;99.90;;;;;;4932604;29;20485;-85
2022/03/20 02:57:58;;;;;;;10.00;3.40;;;-0.90;99.90;;;;;;4936012;29;20493;-85
2022/03/20 03:00:28;;;;;;;8.60;3.15;;;-0.90;99.90;;;;;;4937744;29;20405;-85
2022/03/20 03:02:57;;;;;;;7.53;3.00;;;-0.90;99.90;;;;;;4937354;29;20905;-85
2022/03/20 03:05:26;;;;;;;7.37;3.27;;;-1.00;99.90;;;;;;4936091;29;20915;-85
2022/03/20 03:10:56;;;;;;;8.40;3.03;;;-0.90;99.90;;;;;;4935922;29;20445;-85
2022/03/20 03:13:39;;;;;;;7.60;3.20;;;-0.90;99.90;;;;;;4936476;29;20768;-85
2022/03/20 03:16:11;;;;;;;7.23;2.87;;;-1.00;99.90;;;;;;4936056;29;20401;-85
2022/03/20 03:18:43;;;;;;;8.95;3.10;;;-1.00;99.90;;;;;;4935824;29;20768;-85
2022/03/20 03:21:12;;;;;;;8.83;2.80;;;-1.00;99.90;;;;;;4920191;29;21085;-86
2022/03/20 03:23:40;;;;;;;8.45;3.17;;;-0.90;99.90;;;;;;4936941;29;20797;-85
2022/03/20 03:26:08;;;;;;;9.68;3.10;;;-1.00;99.90;;;;;;4936814;29;20405;-85
2022/03/20 03:28:37;;;;;;;7.28;3.28;;;-1.10;99.90;;;;;;4920063;29;20450;-86
2022/03/20 03:31:07;;;;;;;9.48;2.95;;;-1.00;99.90;;;;;;4919982;29;20469;-85
2022/03/20 03:35:41;;;;;;;7.60;2.88;;;-1.10;99.90;;;;;;4935592;29;20414;-85
2022/03/20 03:36:25;;;;;;;7.70;3.03;;;-1.00;99.90;;;;;;4935590;29;20462;-85
2022/03/20 03:38:53;;;;;;;6.55;2.90;;;-0.90;99.90;;;;;;4935597;29;20393;-85
2022/03/20 03:41:21;;;;;;;7.43;3.10;;;-1.00;99.90;;;;;;4935521;29;20394;-85
2022/03/20 03:43:49;;;;;;;10.73;3.20;;;-1.20;99.90;;;;;;4935584;29;20892;-85
2022/03/20 03:46:16;;;;;;;7.45;3.00;;;-1.10;99.90;;;;;;4935732;29;20430;-85
2022/03/20 03:48:43;;;;;;;7.97;2.97;;;-1.00;99.90;;;;;;4935305;29;20496;-85
2022/03/20 03:51:11;;;;;;;6.70;3.07;;;-1.10;99.90;;;;;;4935124;29;20421;-85
2022/03/20 03:53:38;;;;;;;6.47;2.67;;;-1.20;99.90;;;;;;4919566;29;20468;-85
2022/03/20 03:56:06;;;;;;;8.95;2.83;;;-1.30;99.90;;;;;;4935241;29;20785;-85
2022/03/20 03:58:34;;;;;;;7.93;2.97;;;-1.20;99.90;;;;;;4919528;29;20979;-85
2022/03/20 04:01:02;;;;;;;6.63;3.42;;;-1.10;99.90;;;;;;4931937;29;20933;-85
2022/03/20 04:03:30;;;;;;;6.73;2.83;;;-1.10;99.90;;;;;;4932263;29;20408;-86
2022/03/20 04:06:04;;;;;;;7.50;3.15;;;-1.10;99.90;;;;;;4916165;29;20439;-85
2022/03/20 04:08:34;;;;;;;8.88;2.95;;;-1.00;99.90;;;;;;4931084;29;20894;-85
2022/03/20 04:11:03;;;;;;;6.75;2.95;;;-1.00;99.90;;;;;;4915997;29;20894;-85
2022/03/20 04:13:30;;;;;;;9.18;3.30;;;-1.10;99.90;;;;;;4900234;29;20415;-85
2022/03/20 04:15:58;;;;;;;7.05;3.08;;;-1.10;99.90;;;;;;4918623;29;20406;-85
2022/03/20 04:18:26;;;;;;;8.45;3.30;;;-1.00;99.90;;;;;;4919298;29;20425;-85
2022/03/20 04:20:54;;;;;;;8.45;3.08;;;-1.10;99.90;;;;;;4934755;29;20398;-85
2022/03/20 04:26:07;;;;;;;7.43;3.28;;;-1.10;99.90;;;;;;4916771;29;20407;-85
2022/03/20 04:28:34;;;;;;;10.10;3.40;;;-1.30;99.90;;;;;;4915734;29;20411;-86
2022/03/20 04:31:02;;;;;;;9.40;3.55;;;-1.40;99.90;;;;;;4915567;29;20415;-85
2022/03/20 04:33:31;;;;;;;8.23;3.33;;;-1.40;99.90;;;;;;4931181;29;20502;-85
2022/03/20 04:35:59;;;;;;;9.07;3.60;;;-1.30;99.90;;;;;;4915474;29;21017;-85
2022/03/20 04:38:27;;;;;;;9.27;3.17;;;-1.30;99.90;;;;;;4915400;29;20529;-85
2022/03/20 04:40:55;;;;;;;7.65;3.25;;;-1.30;99.90;;;;;;4931154;29;20408;-84
2022/03/20 04:43:22;;;;;;;8.50;3.50;;;-1.30;99.90;;;;;;4919344;29;20459;-85
2022/03/20 04:45:51;;;;;;;8.15;3.47;;;-1.30;99.90;;;;;;4918638;29;20441;-85
2022/03/20 04:59:24;;;;;;;8.65;4.00;;;-1.40;99.90;;;;;;4950102;29;20430;-85
2022/03/20 05:01:57;;;;;;;7.82;3.90;;;-1.40;99.90;;;;;;4935136;29;20402;-85
2022/03/20 05:04:25;;;;;;;12.48;3.97;;;-1.50;99.90;;;;;;4934057;29;20398;-86
2022/03/20 05:06:52;;;;;;;9.50;4.00;;;-1.40;99.90;;;;;;4918242;29;20473;-85
2022/03/20 05:14:57;;;;;;;8.90;3.80;;;-1.40;99.90;;;;;;4948010;29;20979;-85
2022/03/20 05:17:25;;;;;;;10.15;4.15;;;-1.40;99.90;;;;;;4949426;29;20409;-85
2022/03/20 05:19:52;;;;;;;8.80;3.90;;;-1.30;99.90;;;;;;4932949;29;20418;-85
2022/03/20 05:22:20;;;;;;;8.25;3.67;;;-1.40;99.90;;;;;;4934995;29;20429;-85
2022/03/20 05:24:48;;;;;;;8.68;3.35;;;-1.40;99.90;;;;;;4933640;29;20398;-85
2022/03/20 05:27:15;;;;;;;13.07;4.43;;;-1.30;99.90;;;;;;4933484;29;20788;-85
2022/03/20 05:29:43;;;;;;;8.43;3.85;;;-1.30;99.90;;;;;;4934615;29;20401;-85
2022/03/20 05:32:10;;;;;;;7.93;3.47;;;-1.30;99.90;;;;;;4933824;29;20464;-86
2022/03/20 05:34:38;;;;;;;9.32;3.97;;;-1.30;99.90;;;;;;4933239;29;20421;-86
2022/03/20 05:37:07;;;;;;;9.73;3.67;;;-1.20;99.90;;;;;;4933667;29;21008;-85
2022/03/20 05:39:35;;;;;;;8.93;3.40;;;-1.20;99.90;;;;;;4933397;29;20398;-85
2022/03/20 05:42:03;;;;;;;9.27;3.28;;;-1.20;99.90;;;;;;4933375;29;20461;-85
2022/03/20 05:44:33;;;;;;;10.38;3.30;;;-1.20;99.90;;;;;;4917469;29;20802;-85
2022/03/20 05:47:01;;;;;;;8.38;3.03;;;-1.10;99.90;;;;;;4917669;29;20854;-86
2022/03/20 05:49:29;;;;;;;9.40;3.10;;;-1.10;99.90;;;;;;4933394;29;20574;-85
2022/03/20 05:51:57;;;;;;;7.15;2.60;;;-1.00;99.90;;;;;;4930303;29;20406;-85
2022/03/20 05:54:25;;;;;;;7.95;3.00;;;-0.90;99.90;;;;;;4933144;29;20410;-85
2022/03/20 05:59:38;;;;;;;6.37;2.63;;;-0.80;99.90;;;;;;4932860;29;20405;-86
2022/03/20 06:02:09;;;;;;;7.30;2.95;;;-0.70;99.90;;;;;;4934284;29;20426;-86
2022/03/20 06:04:38;;;;;;;8.00;2.80;;;-0.60;99.90;;;;;;4933194;29;20393;-86
2022/03/20 06:07:08;;;;;;;8.13;2.63;;;-0.50;99.90;;;;;;4933001;29;20484;-86
2022/03/20 06:09:37;;;;;;;6.80;2.72;;;-0.40;99.90;;;;;;4933290;29;20498;-86
2022/03/20 06:12:08;;;;;;;43.20;19.40;;;-0.30;99.90;;;;;;4933125;29;20764;-86
2022/03/20 06:14:36;;;;;;;7.97;2.70;;;-0.30;99.90;;;;;;4933237;29;20543;-86
2022/03/20 06:17:05;;;;;;;8.25;2.47;;;-0.10;99.90;;;;;;4917417;29;20932;-86
2022/03/20 06:19:35;;;;;;;6.13;2.10;;;0.10;99.90;;;;;;4933056;29;20406;-86
2022/03/20 06:22:03;;;;;;;7.10;2.70;;;0.20;99.90;;;;;;4932631;29;20414;-86
2022/03/20 06:24:32;;;;;;;7.90;2.53;;;0.20;99.90;;;;;;4917387;29;20461;-86
2022/03/20 06:27:00;;;;;;;6.47;2.15;;;0.30;99.90;;;;;;4932965;29;20398;-86
2022/03/20 06:29:28;;;;;;;5.03;2.13;;;0.60;99.90;;;;;;4932987;29;20419;-87
2022/03/20 06:31:55;;;;;;;5.72;1.77;;;0.60;99.90;;;;;;4936439;29;20410;-85
2022/03/20 06:34:23;;;;;;;7.93;2.35;;;0.90;99.90;;;;;;4936792;29;20440;-85
2022/03/20 06:36:55;;;;;;;6.82;2.33;;;1.10;99.90;;;;;;4921017;29;20398;-86
2022/03/20 06:39:24;;;;;;;7.10;1.97;;;1.30;99.90;;;;;;4937878;29;20473;-86
2022/03/20 06:41:51;;;;;;;6.80;2.13;;;1.40;99.90;;;;;;4936933;29;20394;-86
2022/03/20 06:44:19;;;;;;;7.10;2.00;;;1.70;99.90;;;;;;4936788;29;20442;-85
2022/03/20 06:46:46;;;;;;;5.78;1.80;;;2.00;99.90;;;;;;4936489;29;20402;-87
2022/03/20 06:49:14;;;;;;;6.70;2.22;;;1.90;99.90;;;;;;4936867;29;20402;-86
2022/03/20 06:51:41;;;;;;;5.13;1.70;;;1.90;99.90;;;;;;4936246;29;20405;-87
2022/03/20 06:54:09;;;;;;;4.75;1.80;;;2.00;99.90;;;;;;4937561;29;20424;-85
2022/03/20 06:56:36;;;;;;;3.88;1.60;;;2.00;99.90;;;;;;4936333;29;20497;-88
2022/03/20 06:59:04;;;;;;;4.47;1.67;;;2.10;99.90;;;;;;4920181;29;20814;-86
2022/03/20 07:01:31;;;;;;;4.97;1.85;;;2.20;99.90;;;;;;4936330;29;20742;-86
2022/03/20 07:04:00;;;;;;;4.85;1.48;;;2.60;99.90;;;;;;4936778;29;20417;-85
2022/03/20 07:06:29;;;;;;;4.78;1.55;;;2.50;99.90;;;;;;4917271;29;20404;-86
2022/03/20 07:09:00;;;;;;;3.45;1.30;;;2.50;99.90;;;;;;4917070;29;20399;-86
2022/03/20 07:11:32;;;;;;;3.10;1.30;;;2.60;99.90;;;;;;4901887;29;20440;-85
2022/03/20 07:14:01;;;;;;;5.80;1.60;;;2.70;99.90;;;;;;4921072;29;20432;-85
2022/03/20 07:16:30;;;;;;;4.13;1.80;;;2.80;99.90;;;;;;4935972;29;20809;-86
2022/03/20 07:18:58;;;;;;;4.22;1.40;;;2.80;99.90;;;;;;4943414;29;20435;-86
2022/03/20 07:21:28;;;;;;;4.80;1.30;;;3.00;99.90;;;;;;4935810;29;20425;-87
2022/03/20 07:23:57;;;;;;;3.63;1.55;;;2.90;99.90;;;;;;4935926;29;20402;-87
2022/03/20 07:31:58;;;;;;;4.43;1.50;;;2.90;99.90;;;;;;4937119;29;20497;-87
2022/03/20 07:34:26;;;;;;;3.97;1.30;;;2.80;99.90;;;;;;4935690;29;20764;-87
2022/03/20 07:36:54;;;;;;;4.15;1.30;;;2.90;99.90;;;;;;4920034;29;20416;-87
2022/03/20 07:39:21;;;;;;;5.13;1.30;;;3.20;99.90;;;;;;4936330;29;20436;-87
2022/03/20 07:41:49;;;;;;;3.58;1.08;;;3.30;99.90;;;;;;4934946;29;20401;-87
2022/03/20 07:44:26;;;;;;;3.70;1.40;;;3.20;99.90;;;;;;4920782;29;20819;-86
2022/03/20 07:46:54;;;;;;;4.45;1.42;;;3.10;99.90;;;;;;4935448;29;20413;-86
2022/03/20 07:49:22;;;;;;;3.83;1.30;;;3.30;99.90;;;;;;4934026;29;20490;-87
2022/03/20 07:51:50;;;;;;;3.50;1.20;;;3.40;99.90;;;;;;4935391;29;20401;-86
2022/03/20 07:54:17;;;;;;;4.53;1.13;;;3.30;99.90;;;;;;4935433;29;20421;-87
2022/03/20 07:56:45;;;;;;;2.70;1.13;;;3.40;99.90;;;;;;4935337;29;20390;-86
2022/03/20 07:59:13;;;;;;;3.30;1.30;;;3.30;99.90;;;;;;4935005;29;21079;-87
2022/03/20 08:01:41;;;;;;;4.07;1.30;;;3.30;99.90;;;;;;4920234;29;20512;-87
2022/03/20 08:04:11;;;;;;;2.97;1.00;;;3.30;99.90;;;;;;4935213;29;20398;-87
2022/03/20 08:06:39;;;;;;;3.80;1.10;;;3.30;99.90;;;;;;4935194;29;20424;-87
2022/03/20 08:09:08;;;;;;;2.93;1.27;;;3.30;99.90;;;;;;4935178;29;20445;-89
2022/03/20 08:11:36;;;;;;;3.80;1.13;;;3.30;99.90;;;;;;4935385;29;20409;-88
2022/03/20 08:14:08;;;;;;;3.72;1.50;;;3.20;99.90;;;;;;4919390;29;20410;-88
2022/03/20 08:16:39;;;;;;;3.05;0.95;;;3.30;99.90;;;;;;4935111;29;20406;-88
2022/03/20 08:19:08;;;;;;;2.90;1.10;;;3.30;99.90;;;;;;4935267;29;20421;-87
2022/03/20 08:21:38;;;;;;;2.85;1.02;;;3.40;99.90;;;;;;4936607;29;20398;-88
2022/03/20 08:24:06;;;;;;;4.18;1.10;;;3.40;99.90;;;;;;4935245;29;20799;-88
2022/03/20 08:26:34;;;;;;;3.22;1.15;;;3.50;99.90;;;;;;4919424;29;20410;-88
2022/03/20 08:29:02;;;;;;;2.97;1.13;;;3.50;99.90;;;;;;4934935;29;20493;-87
2022/03/20 08:31:33;;;;;;;3.78;1.00;;;3.50;99.90;;;;;;4918591;29;20401;-89
2022/03/20 08:34:06;;;;;;;3.22;1.00;;;3.50;99.90;;;;;;4938220;29;20508;-88
2022/03/20 08:36:34;;;;;;;4.10;1.08;;;3.60;99.90;;;;;;4919353;29;20415;-89
2022/03/20 08:39:02;;;;;;;3.88;1.35;;;3.80;99.90;;;;;;4935079;29;20943;-88
2022/03/20 08:41:31;;;;;;;4.07;1.30;;;4.00;99.90;;;;;;4935226;29;20400;-89
2022/03/20 08:44:00;;;;;;;3.70;1.10;;;4.20;99.90;;;;;;4935488;29;20954;-88
2022/03/20 08:46:27;;;;;;;2.28;1.00;;;4.20;99.90;;;;;;4933513;29;20422;-88
2022/03/20 08:48:55;;;;;;;3.15;1.08;;;4.30;99.90;;;;;;4917352;29;20416;-88
2022/03/20 08:51:23;;;;;;;4.87;1.30;;;4.20;99.90;;;;;;4934527;29;20413;-88
2022/03/20 08:53:51;;;;;;;3.95;1.15;;;4.10;99.90;;;;;;4929878;29;20410;-88
2022/03/20 08:56:18;;;;;;;3.00;0.90;;;4.50;99.90;;;;;;4934566;29;20436;-87
2022/03/20 08:58:46;;;;;;;2.28;0.90;;;4.40;99.90;;;;;;4935139;29;20830;-88
2022/03/20 09:01:21;;;;;;;2.53;0.73;;;4.40;99.90;;;;;;4934441;29;20896;-88
2022/03/20 09:03:50;;;;;;;1.55;0.70;;;4.50;99.90;;;;;;4934376;29;20896;-89
2022/03/20 09:06:19;;;;;;;3.70;1.00;;;4.70;99.90;;;;;;4950216;29;20440;-88
2022/03/20 09:08:48;;;;;;;4.55;1.05;;;4.80;99.90;;;;;;4966352;28;20768;-89
2022/03/20 09:11:21;;;;;;;3.38;1.20;;;4.70;99.90;;;;;;4950438;29;20465;-89
2022/03/20 09:13:48;;;;;;;5.13;1.30;;;4.60;99.90;;;;;;4950079;29;20414;-89
2022/03/20 09:19:07;;;;;;;2.85;0.90;;;4.80;99.90;;;;;;4933463;29;20409;-88
2022/03/20 09:21:37;;;;;;;1.85;0.90;;;4.70;99.90;;;;;;4933668;29;20493;-88
2022/03/20 09:24:06;;;;;;;2.90;0.90;;;4.70;99.90;;;;;;4924749;29;20497;-89
2022/03/20 09:26:35;;;;;;;3.45;0.90;;;4.90;99.90;;;;;;4917391;29;20410;-88
2022/03/20 09:29:04;;;;;;;2.15;0.90;;;4.80;99.90;;;;;;4914515;29;20428;-88
2022/03/20 09:31:34;;;;;;;5.18;0.80;;;4.90;99.90;;;;;;4905657;29;20502;-90
2022/03/20 09:34:09;;;;;;;3.03;0.80;;;5.00;99.90;;;;;;4912806;29;20486;-86
2022/03/20 09:36:37;;;;;;;3.00;1.17;;;5.00;99.90;;;;;;4919992;29;20443;-85
2022/03/20 09:39:05;;;;;;;3.67;1.00;;;4.90;99.90;;;;;;4925700;29;20423;-85
2022/03/20 09:41:35;;;;;;;2.83;1.00;;;5.30;99.90;;;;;;4921983;29;20890;-85
2022/03/20 09:44:05;;;;;;;2.88;0.82;;;5.30;99.90;;;;;;4918023;29;20409;-86
2022/03/20 09:46:34;;;;;;;2.65;0.90;;;5.20;99.90;;;;;;4939774;29;20412;-85
2022/03/20 09:49:06;;;;;;;1.77;0.75;;;5.10;99.90;;;;;;4926668;29;20500;-85
2022/03/20 09:51:35;;;;;;;4.70;0.90;;;5.10;99.90;;;;;;4932575;29;20418;-84
2022/03/20 09:54:03;;;;;;;3.70;1.00;;;5.40;99.90;;;;;;4917487;29;20901;-85
2022/03/20 09:56:32;;;;;;;3.08;0.90;;;5.50;99.90;;;;;;4933336;29;20420;-84
2022/03/20 09:59:00;;;;;;;2.65;0.80;;;5.60;99.90;;;;;;4919681;29;20410;-85
2022/03/20 10:01:27;;;;;;;3.87;0.83;;;5.50;99.90;;;;;;4924643;28;20434;-85
2022/03/20 10:04:15;;;;;;;4.13;0.90;;;5.40;99.90;;;;;;4933041;29;20535;-86
2022/03/20 10:06:45;;;;;;;8.98;3.42;;;5.30;99.90;;;;;;4934088;29;20397;-85
2022/03/20 10:09:15;;;;;;;3.63;1.10;;;5.60;99.90;;;;;;4933422;29;20407;-85
2022/03/20 10:12:00;;;;;;;2.88;0.93;;;5.70;99.90;;;;;;4934449;29;20444;-83
2022/03/20 10:14:31;;;;;;;4.47;1.20;;;5.80;99.90;;;;;;4934370;29;20401;-83
2022/03/20 10:17:14;;;;;;;3.25;1.00;;;5.80;99.90;;;;;;4934569;29;20881;-85
2022/03/20 10:19:41;;;;;;;2.13;0.90;;;6.00;99.90;;;;;;4932976;29;20429;-84
2022/03/20 10:22:14;;;;;;;2.50;1.00;;;5.90;99.90;;;;;;4932897;29;20760;-85
2022/03/20 10:24:48;;;;;;;2.90;1.05;;;6.00;99.90;;;;;;4933722;29;20406;-84
2022/03/20 10:27:17;;;;;;;2.90;0.80;;;6.00;99.90;;;;;;4915082;29;20403;-84
2022/03/20 10:29:50;;;;;;;3.08;0.90;;;6.10;99.90;;;;;;4915166;29;20477;-83
2022/03/20 10:32:22;;;;;;;2.00;1.00;;;5.90;99.90;;;;;;4913937;29;20400;-83
2022/03/20 10:34:51;;;;;;;2.22;0.65;;;6.30;99.90;;;;;;4914203;29;20486;-84
2022/03/20 10:37:21;;;;;;;2.78;1.00;;;6.20;99.90;;;;;;4932297;29;20398;-82
2022/03/20 10:40:07;;;;;;;2.40;1.05;;;6.50;99.90;;;;;;4932259;29;20401;-83
2022/03/20 10:42:35;;;;;;;2.60;0.80;;;6.50;99.90;;;;;;4939296;29;20880;-83
2022/03/20 10:45:05;;;;;;;2.13;0.90;;;6.40;99.90;;;;;;4923995;29;20417;-83
2022/03/20 10:47:33;;;;;;;2.40;0.90;;;6.60;99.90;;;;;;4922214;29;20418;-83
2022/03/20 10:50:08;;;;;;;1.80;0.70;;;6.50;99.90;;;;;;4932039;29;20825;-83
2022/03/20 10:52:39;;;;;;;1.48;0.70;;;6.40;99.90;;;;;;4933099;29;20429;-83
2022/03/20 10:55:12;;;;;;;2.10;0.70;;;6.50;99.90;;;;;;4932164;29;20469;-82
2022/03/20 10:57:39;;;;;;;2.00;0.60;;;6.80;99.90;;;;;;4928719;29;20513;-83
2022/03/20 11:00:11;;;;;;;8.97;3.43;;;6.80;99.90;;;;;;4922745;29;20437;-83
2022/03/20 11:02:40;;;;;;;2.60;0.95;;;6.90;99.90;;;;;;4924674;29;20409;-83
2022/03/20 11:05:08;;;;;;;2.15;0.70;;;7.30;99.90;;;;;;4915802;29;20854;-83
2022/03/20 11:07:37;;;;;;;2.85;0.70;;;7.50;99.90;;;;;;4914720;29;20882;-82
2022/03/20 11:10:13;;;;;;;2.13;0.80;;;7.40;99.90;;;;;;4903197;29;20405;-83
2022/03/20 11:12:43;;;;;;;1.70;0.70;;;7.40;99.90;;;;;;4932704;29;20401;-84
2022/03/20 11:15:12;;;;;;;1.70;0.80;;;7.50;99.90;;;;;;4925100;29;20414;-83
2022/03/20 11:17:45;;;;;;;5.90;2.58;;;7.60;99.90;;;;;;4918355;29;20445;-83
2022/03/20 11:20:15;;;;;;;2.67;1.20;;;7.60;99.90;;;;;;4920081;29;20435;-82
2022/03/20 11:22:47;;;;;;;4.18;1.08;;;7.70;99.90;;;;;;4917075;29;20404;-85
2022/03/20 11:25:24;;;;;;;3.70;1.00;;;7.70;99.90;;;;;;4916983;29;20494;-82
2022/03/20 11:28:01;;;;;;;2.97;0.90;;;7.70;99.90;;;;;;4916665;29;20411;-83
2022/03/20 11:30:31;;;;;;;2.25;0.95;;;7.80;99.90;;;;;;4917782;29;20414;-83
2022/03/20 11:33:00;;;;;;;2.00;0.90;;;7.90;99.90;;;;;;4923368;29;20406;-83
2022/03/20 11:35:32;;;;;;;1.90;0.97;;;7.80;99.90;;;;;;4935504;29;20501;-83
2022/03/20 11:38:24;;;;;;;2.40;1.15;;;7.70;99.90;;;;;;4936590;29;20405;-83
2022/03/20 11:41:20;;;;;;;3.03;1.10;;;7.90;99.90;;;;;;4935615;29;20398;-81
2022/03/20 11:44:21;;;;;;;3.10;1.20;;;7.70;99.90;;;;;;4937114;29;20940;-82
2022/03/20 11:47:15;;;;;;;2.15;1.20;;;7.70;99.90;;;;;;4935486;29;20405;-84
2022/03/20 11:49:43;;;;;;;5.07;1.20;;;7.90;99.90;;;;;;4935233;29;20413;-84
2022/03/20 11:52:12;;;;;;;3.80;1.58;;;8.10;99.90;;;;;;4935500;29;20451;-84
2022/03/20 11:54:42;;;;;;;3.03;1.20;;;8.20;99.90;;;;;;4935277;29;20880;-82
2022/03/20 11:57:29;;;;;;;3.10;1.47;;;8.10;99.90;;;;;;4935694;29;20481;-83
2022/03/20 12:00:08;;;;;;;2.92;1.35;;;8.30;99.90;;;;;;4915678;29;20414;-82
2022/03/20 12:02:40;;;;;;;2.75;1.50;;;8.20;99.90;;;;;;4933136;29;20398;-83
2022/03/20 12:05:29;;;;;;;3.75;1.30;;;8.20;99.90;;;;;;4935236;29;20406;-84
2022/03/20 12:08:14;;;;;;;2.40;1.30;;;8.40;99.90;;;;;;4934846;29;20402;-84
2022/03/20 12:11:14;;;;;;;2.88;1.48;;;8.50;99.90;;;;;;4935064;29;20406;-83
2022/03/20 12:13:47;;;;;;;2.53;1.77;;;8.50;99.90;;;;;;4950884;29;20414;-83
2022/03/20 12:16:49;;;;;;;4.32;2.13;;;8.50;99.90;;;;;;4919201;29;20445;-85
2022/03/20 12:19:20;;;;;;;3.35;1.67;;;8.50;99.90;;;;;;4919138;29;20457;-83
2022/03/20 12:22:06;;;;;;;4.22;1.60;;;8.50;99.90;;;;;;4919115;29;20485;-83
2022/03/20 12:24:39;;;;;;;3.15;1.50;;;8.60;99.90;;;;;;4936112;29;20424;-84
2022/03/20 12:27:23;;;;;;;3.20;1.67;;;8.70;99.90;;;;;;4919525;29;20406;-83
2022/03/20 12:30:26;;;;;;;3.43;1.60;;;8.90;99.90;;;;;;4934336;29;20837;-83
2022/03/20 12:32:57;;;;;;;4.00;1.80;;;9.10;99.90;;;;;;4934651;29;20757;-82
2022/03/20 12:35:41;;;;;;;3.05;1.52;;;9.10;99.90;;;;;;4935341;29;20424;-83
2022/03/20 12:38:35;;;;;;;4.45;2.10;;;8.90;99.90;;;;;;4934244;29;20869;-83
2022/03/20 12:41:15;;;;;;;2.67;1.60;;;9.10;99.90;;;;;;4928347;29;20418;-83
2022/03/20 12:43:56;;;;;;;3.85;1.77;;;9.00;99.90;;;;;;4916599;29;20558;-84
2022/03/20 12:46:24;;;;;;;3.25;1.90;;;9.10;99.90;;;;;;4915131;29;20443;-83
2022/03/20 12:48:54;;;;;;;3.92;1.98;;;9.10;99.90;;;;;;4916452;29;20486;-83
2022/03/20 12:51:32;;;;;;;3.30;1.60;;;9.20;99.90;;;;;;4916570;29;20430;-82
2022/03/20 12:54:15;;;;;;;3.30;2.00;;;9.20;99.90;;;;;;4915132;29;20400;-83
2022/03/20 12:56:58;;;;;;;3.83;1.80;;;9.20;99.90;;;;;;4915046;29;20467;-83
2022/03/20 12:59:26;;;;;;;3.30;1.77;;;9.30;99.90;;;;;;4916212;29;20400;-83
2022/03/20 13:01:55;;;;;;;5.30;2.30;;;9.30;99.90;;;;;;4931473;29;20460;-83
2022/03/20 13:04:25;;;;;;;4.88;2.10;;;9.40;99.90;;;;;;4934311;29;20423;-83
2022/03/20 13:06:54;;;;;;;3.28;1.40;;;9.50;99.90;;;;;;4933518;29;20437;-84
2022/03/20 13:09:22;;;;;;;4.38;2.20;;;9.70;99.90;;;;;;4935318;29;20441;-83
2022/03/20 13:11:59;;;;;;;3.63;1.77;;;9.50;99.90;;;;;;4920505;29;20406;-84
2022/03/20 13:14:27;;;;;;;2.20;1.30;;;9.60;99.90;;;;;;4916207;29;20432;-83
2022/03/20 13:16:56;;;;;;;2.97;1.20;;;9.50;99.90;;;;;;4916066;29;20919;-83
2022/03/20 13:19:37;;;;;;;3.40;1.50;;;9.70;99.90;;;;;;4916086;29;20398;-83
2022/03/20 13:22:10;;;;;;;6.47;1.77;;;9.70;99.90;;;;;;4899568;29;20479;-83
2022/03/20 13:24:42;;;;;;;2.85;1.10;;;9.50;99.90;;;;;;4914686;29;20483;-83
2022/03/20 13:27:12;;;;;;;4.15;1.20;;;9.60;99.90;;;;;;4914448;29;20408;-83
2022/03/20 13:29:51;;;;;;;2.60;1.00;;;9.80;99.90;;;;;;4915867;29;20407;-83
2022/03/20 13:32:21;;;;;;;1.70;0.90;;;9.70;99.90;;;;;;4933516;29;20888;-83
2022/03/20 13:34:49;;;;;;;3.83;1.00;;;9.60;99.90;;;;;;4933977;29;20402;-83
2022/03/20 13:37:21;;;;;;;3.25;1.20;;;9.70;99.90;;;;;;4934101;29;20413;-84
2022/03/20 13:39:52;;;;;;;3.40;1.13;;;10.00;99.90;;;;;;4917240;29;20402;-84
2022/03/20 13:42:23;;;;;;;2.63;1.17;;;10.20;99.90;;;;;;4933555;29;20469;-83
2022/03/20 13:44:53;;;;;;;2.07;1.00;;;10.10;99.90;;;;;;4948679;29;20418;-83
2022/03/20 13:47:21;;;;;;;1.97;1.00;;;10.20;99.90;;;;;;4931660;29;20938;-84